createdAt,value
2023-04-22T00:04:23.312Z,26.50
2023-04-22T00:19:26.124Z,25.70
2023-04-22T00:49:31.612Z,28.00
2023-04-22T01:19:38.684Z,25.30
2023-04-22T01:34:41.664Z,24.90
2023-04-22T01:49:44.359Z,24.60
2023-04-22T02:04:47.017Z,21.60
2023-04-22T02:34:52.321Z,24.90
2023-04-22T02:49:55.102Z,26.10
2023-04-22T03:04:57.699Z,23.70
2023-04-22T03:35:03.187Z,23.60
2023-04-22T03:50:06.433Z,30.40
2023-04-22T04:05:11.207Z,29.60
2023-04-22T04:20:15.801Z,28.00
2023-04-22T04:35:18.780Z,22.90
2023-04-22T04:50:22.711Z,31.80
2023-04-22T05:05:25.546Z,24.20
2023-04-22T05:20:28.589Z,24.70
2023-04-22T05:35:31.407Z,36.50
2023-04-22T05:50:34.055Z,21.60
2023-04-22T06:05:36.712Z,17.20
2023-04-22T06:20:39.714Z,19.10
2023-04-22T06:35:42.410Z,18.40
2023-04-22T06:50:45.169Z,15.70
2023-04-22T07:05:48.696Z,15.20
2023-04-22T07:20:51.819Z,17.60
2023-04-22T07:35:54.783Z,16.10
2023-04-22T07:50:57.420Z,14.60
2023-04-22T08:06:00.314Z,15.20
2023-04-22T08:21:05.601Z,15.00
2023-04-22T08:36:09.670Z,15.30
2023-04-22T08:51:16.339Z,15.50
2023-04-22T09:06:20.737Z,13.10
2023-04-22T09:21:32.088Z,12.40
2023-04-22T09:36:37.696Z,11.90
2023-04-22T09:51:42.515Z,9.90
2023-04-22T10:06:45.862Z,10.30
2023-04-22T10:21:52.731Z,8.60
2023-04-22T10:37:19.646Z,8.60
2023-04-22T10:52:32.121Z,9.70
2023-04-22T11:07:36.413Z,10.60
2023-04-22T11:22:46.516Z,9.70
2023-04-22T11:38:15.585Z,8.70
2023-04-22T11:53:19.972Z,12.30
2023-04-22T12:08:26.468Z,8.60
2023-04-22T12:23:29.089Z,11.20
2023-04-22T12:38:31.788Z,9.00
2023-04-22T12:53:34.725Z,8.90
2023-04-22T13:08:37.348Z,7.40
2023-04-22T13:23:40.095Z,8.30
2023-04-22T13:38:42.685Z,7.60
2023-04-22T13:53:45.767Z,10.20
2023-04-22T14:08:48.483Z,9.30
2023-04-22T14:23:51.501Z,12.90
2023-04-22T14:38:54.104Z,7.90
2023-04-22T14:53:56.696Z,10.20
2023-04-22T15:08:59.290Z,7.80
2023-04-22T15:24:01.900Z,7.20
2023-04-22T15:39:05.611Z,7.30
2023-04-22T15:54:08.768Z,7.90
2023-04-22T16:09:11.636Z,9.20
2023-04-22T16:24:14.666Z,19.50
2023-04-22T16:39:19.159Z,15.40
2023-04-22T16:54:22.101Z,13.00
2023-04-22T17:09:24.996Z,9.80
2023-04-22T17:24:27.809Z,10.30
2023-04-22T17:39:30.959Z,12.60
2023-04-22T17:54:33.567Z,13.80
2023-04-22T18:09:36.222Z,18.30
2023-04-22T18:24:39.297Z,25.00
2023-04-22T18:39:44.511Z,24.20
2023-04-22T18:54:47.460Z,32.30
2023-04-22T19:09:50.110Z,31.70
2023-04-22T19:24:52.753Z,33.70
2023-04-22T19:39:56.089Z,29.70
2023-04-22T19:55:07.417Z,30.70
2023-04-22T20:10:10.457Z,31.60
2023-04-22T20:25:15.927Z,34.10
2023-04-22T20:40:18.924Z,36.50
2023-04-22T20:55:22.562Z,32.10
2023-04-22T21:10:25.757Z,40.20
2023-04-22T21:25:30.419Z,31.80
2023-04-22T21:40:33.144Z,33.90
2023-04-22T21:55:35.736Z,35.20
2023-04-22T22:10:38.404Z,47.20
2023-04-22T22:25:41.102Z,45.80
2023-04-22T22:40:43.704Z,36.90
2023-04-22T22:55:46.289Z,31.80
2023-04-22T23:10:49.019Z,30.60
2023-04-22T23:25:52.022Z,35.20
2023-04-22T23:40:54.616Z,32.40
2023-04-22T23:55:58.112Z,28.10
